This is the latest recevied weather packets stored in our database for station/object M0HPP-13. If no packets are shown the sender has not sent any weather packets the latest 10 day(s).
| Time | Temp. | Humidity | Pressure | Rain* | Wind** | Luminosity | Snow |
|---|---|---|---|---|---|---|---|
| 1788277086 | 16.67° C | 56% | 1008.5 hPa | 0 mm | - | 254 W/m² | - |
| 1788276486 | 16.11° C | 56% | 1008.4 hPa | 0 mm | - | 342 W/m² | - |
| 1788275886 | 16.11° C | 54% | 1008.3 hPa | 0 mm | - | 248 W/m² | - |
| 1788275286 | 16.67° C | 58% | 1008.2 hPa | 0 mm | - | 349 W/m² | - |
| 1788274686 | 16.11° C | 60% | 1008.1 hPa | 0 mm | - | 286 W/m² | - |
| 1788274086 | 16.11° C | 61% | 1008.1 hPa | 0 mm | - | 345 W/m² | - |
| 1788273486 | 16.11° C | 64% | 1008 hPa | 0 mm | - | 271 W/m² | - |
| 1788272886 | 16.11° C | 63% | 1008 hPa | 0 mm | - | 249 W/m² | - |
| 1788272286 | 17.22° C | 58% | 1007.8 hPa | 0 mm | - | 265 W/m² | - |
| 1788271686 | 16.67° C | 60% | 1007.6 hPa | 0 mm | - | 519 W/m² | - |
| 1788271086 | 16.11° C | 60% | 1007.6 hPa | 0 mm | - | 350 W/m² | - |
| 1788270487 | 15.56° C | 65% | 1007.5 hPa | 0 mm | - | 426 W/m² | - |
| 1788269886 | 16.11° C | 63% | 1007.5 hPa | 0 mm | - | 295 W/m² | - |
| 1788269286 | 15° C | 68% | 1007.4 hPa | 0 mm | - | 492 W/m² | - |
| 1788268686 | 14.44° C | 71% | 1007.4 hPa | 0 mm | - | 144 W/m² | - |
| 1788268086 | 16.67° C | 65% | 1007.1 hPa | 0 mm | - | 336 W/m² | - |
| 1788267486 | 15.56° C | 69% | 1007.1 hPa | 0 mm | - | 377 W/m² | - |
| 1788266886 | 16.11° C | 70% | 1007 hPa | 0 mm | - | 354 W/m² | - |
| 1788266286 | 16.11° C | 72% | 1006.9 hPa | 0 mm | - | 350 W/m² | - |
| 1788265686 | 16.11° C | 74% | 1006.7 hPa | 0 mm | - | 416 W/m² | - |
| 1788265086 | 15° C | 78% | 1006.7 hPa | 0 mm | - | 466 W/m² | - |
| 1788264486 | 15.56° C | 76% | 1006.6 hPa | 0 mm | - | 260 W/m² | - |
| 1788263886 | 15° C | 79% | 1006.6 hPa | 0 mm | - | 346 W/m² | - |
| 1788263286 | 15.56° C | 76% | 1006.2 hPa | 0 mm | - | 311 W/m² | - |
| 1788262686 | 16.11° C | 76% | 1006 hPa | 0 mm | - | 452 W/m² | - |
* Rain latest hour (hover to see other rain measurements)
** Current wind speed in m/s (hover to see current wind gust speed)